createdAt,value
2019-03-30T00:00:41.808Z,46.35
2019-03-30T00:03:15.175Z,46.85
2019-03-30T00:05:47.201Z,40.83
2019-03-30T00:08:19.525Z,45.50
2019-03-30T00:10:51.501Z,48.65
2019-03-30T00:13:23.423Z,50.60
2019-03-30T00:15:55.438Z,54.40
2019-03-30T00:18:27.783Z,53.15
2019-03-30T00:21:00.622Z,46.58
2019-03-30T00:23:32.902Z,51.02
2019-03-30T00:26:04.886Z,50.88
2019-03-30T00:28:36.975Z,53.00
2019-03-30T00:31:09.145Z,49.98
2019-03-30T00:33:41.222Z,58.15
2019-03-30T00:36:13.899Z,46.33
2019-03-30T00:38:47.172Z,57.25
2019-03-30T00:41:19.537Z,51.63
2019-03-30T00:43:51.646Z,58.73
2019-03-30T00:46:23.596Z,49.48
2019-03-30T00:48:56.362Z,48.30
2019-03-30T00:51:28.246Z,47.95
2019-03-30T00:54:00.300Z,51.80
2019-03-30T00:56:32.471Z,51.73
2019-03-30T00:59:04.584Z,66.95
2019-03-30T01:01:37.489Z,50.43
2019-03-30T01:04:09.489Z,42.78
2019-03-30T01:06:41.256Z,46.77
2019-03-30T01:09:13.626Z,50.85
2019-03-30T01:11:45.706Z,47.58
2019-03-30T01:14:17.773Z,43.40
2019-03-30T01:16:50.347Z,35.35
2019-03-30T01:19:22.280Z,35.17
2019-03-30T01:21:56.156Z,57.13
2019-03-30T01:24:28.625Z,55.55
2019-03-30T01:27:00.569Z,45.90
2019-03-30T01:29:33.550Z,36.70
2019-03-30T01:32:05.701Z,48.78
2019-03-30T01:34:37.773Z,33.00
2019-03-30T01:37:09.876Z,41.73
2019-03-30T01:39:42.008Z,43.50
2019-03-30T01:42:14.129Z,44.13
2019-03-30T01:44:46.104Z,34.25
2019-03-30T01:47:19.861Z,39.27
2019-03-30T01:49:54.408Z,34.25
2019-03-30T01:52:27.488Z,42.58
2019-03-30T01:55:00.770Z,32.78
2019-03-30T01:57:33.130Z,43.75
2019-03-30T02:00:08.702Z,44.85
2019-03-30T02:02:44.149Z,36.70
2019-03-30T02:05:16.456Z,33.98
2019-03-30T02:07:49.479Z,31.65
2019-03-30T02:10:25.406Z,32.85
2019-03-30T02:12:57.377Z,32.80
2019-03-30T02:15:29.384Z,40.60
2019-03-30T02:18:02.064Z,39.30
2019-03-30T02:20:54.538Z,35.55
2019-03-30T02:23:26.718Z,42.53
2019-03-30T02:25:58.692Z,37.25
2019-03-30T02:28:30.741Z,37.80
2019-03-30T02:31:03.407Z,37.03
2019-03-30T02:33:35.536Z,35.63
2019-03-30T02:36:08.233Z,32.28
2019-03-30T02:38:40.700Z,37.23
2019-03-30T02:41:12.859Z,31.75
2019-03-30T02:43:47.198Z,37.38
2019-03-30T02:46:19.583Z,37.35
2019-03-30T02:48:51.781Z,31.12
2019-03-30T02:51:23.975Z,41.98
2019-03-30T02:53:58.006Z,38.55
2019-03-30T02:56:29.907Z,32.33
2019-03-30T02:59:02.166Z,33.23
2019-03-30T03:01:35.263Z,32.58
2019-03-30T03:04:08.732Z,32.23
2019-03-30T03:06:45.639Z,31.00
2019-03-30T03:09:17.791Z,30.60
2019-03-30T03:11:49.914Z,33.45
2019-03-30T03:14:22.411Z,31.90
2019-03-30T03:16:54.856Z,30.48
2019-03-30T03:19:27.956Z,30.72
2019-03-30T03:22:01.001Z,26.15
2019-03-30T03:24:34.385Z,41.33
2019-03-30T03:27:06.781Z,47.50
2019-03-30T03:29:43.384Z,27.80
2019-03-30T03:32:16.234Z,25.50
2019-03-30T03:34:48.247Z,25.72
2019-03-30T03:37:20.394Z,37.85
2019-03-30T03:39:52.800Z,26.80
2019-03-30T03:42:25.796Z,32.78
2019-03-30T03:44:58.924Z,23.80
2019-03-30T03:47:31.606Z,28.17
2019-03-30T03:50:03.831Z,46.10
2019-03-30T03:52:36.714Z,26.20
2019-03-30T03:55:09.119Z,30.75
2019-03-30T03:57:45.054Z,30.60
2019-03-30T04:00:38.281Z,32.75
2019-03-30T04:03:37.047Z,25.75
2019-03-30T04:06:10.172Z,24.32
2019-03-30T04:08:45.329Z,30.27
2019-03-30T04:11:19.793Z,33.78
2019-03-30T04:13:54.629Z,30.32
2019-03-30T04:16:27.226Z,31.33
2019-03-30T04:19:00.423Z,31.33
2019-03-30T04:21:43.561Z,29.25
2019-03-30T04:24:06.175Z,29.12
2019-03-30T04:26:38.584Z,32.15
2019-03-30T04:29:10.394Z,31.97
2019-03-30T04:32:01.611Z,27.22
2019-03-30T04:34:33.437Z,29.48
2019-03-30T04:37:05.556Z,27.30
2019-03-30T04:39:37.769Z,25.57
2019-03-30T04:42:13.944Z,26.00
2019-03-30T04:44:47.107Z,21.27
2019-03-30T04:47:19.151Z,26.73
2019-03-30T04:49:51.202Z,23.52
2019-03-30T04:52:23.518Z,25.92
2019-03-30T04:54:55.667Z,20.52
2019-03-30T04:57:29.189Z,20.27
2019-03-30T05:00:01.206Z,23.25
2019-03-30T05:02:33.857Z,23.02
2019-03-30T05:05:06.774Z,26.60
2019-03-30T05:07:39.991Z,34.38
2019-03-30T05:10:12.279Z,27.73
2019-03-30T05:12:49.069Z,25.60
2019-03-30T05:15:53.490Z,28.23
2019-03-30T05:18:25.955Z,40.45
2019-03-30T05:20:58.140Z,25.37
2019-03-30T05:23:30.273Z,23.47
2019-03-30T05:26:02.521Z,28.92
2019-03-30T05:28:54.019Z,23.47
2019-03-30T05:31:26.164Z,18.45
2019-03-30T05:33:58.411Z,18.15
2019-03-30T05:36:30.782Z,27.95
2019-03-30T05:39:03.054Z,20.85
2019-03-30T05:41:35.174Z,25.52
2019-03-30T05:44:07.199Z,27.95
2019-03-30T05:46:40.051Z,25.80
2019-03-30T05:49:12.349Z,24.55
2019-03-30T05:51:44.596Z,27.42
2019-03-30T05:54:16.848Z,24.90
2019-03-30T05:56:49.062Z,21.27
2019-03-30T05:59:21.367Z,29.63
2019-03-30T06:01:53.509Z,26.95
2019-03-30T06:04:25.990Z,25.37
2019-03-30T06:06:58.354Z,34.95
2019-03-30T06:09:31.579Z,20.37
2019-03-30T06:12:03.864Z,23.60
2019-03-30T06:14:35.749Z,28.15
2019-03-30T06:17:07.966Z,19.95
2019-03-30T06:19:40.458Z,20.82
2019-03-30T06:22:12.472Z,27.10
2019-03-30T06:24:47.956Z,34.23
2019-03-30T06:27:20.104Z,23.22
2019-03-30T06:29:56.659Z,22.27
2019-03-30T06:32:29.013Z,26.87
2019-03-30T06:35:01.320Z,23.20
2019-03-30T06:37:52.460Z,67.55
2019-03-30T06:40:24.737Z,24.00
2019-03-30T06:42:59.104Z,21.57
2019-03-30T06:45:31.946Z,21.70
2019-03-30T06:48:04.763Z,21.82
2019-03-30T06:50:36.552Z,29.90
2019-03-30T06:53:08.946Z,28.32
2019-03-30T06:55:41.579Z,17.20
2019-03-30T06:58:13.644Z,23.80
2019-03-30T07:00:47.769Z,18.70
2019-03-30T07:03:20.365Z,16.70
2019-03-30T07:05:54.290Z,23.32
2019-03-30T07:08:46.799Z,24.92
2019-03-30T07:11:22.071Z,29.70
2019-03-30T07:13:56.210Z,21.77
2019-03-30T07:16:31.121Z,23.15
2019-03-30T07:19:05.699Z,24.75
2019-03-30T07:21:39.397Z,22.10
2019-03-30T07:24:11.371Z,18.48
2019-03-30T07:26:43.690Z,31.07
2019-03-30T07:29:15.954Z,22.45
2019-03-30T07:31:57.234Z,20.08
2019-03-30T07:34:48.475Z,28.90
2019-03-30T07:37:24.819Z,21.07
2019-03-30T07:39:57.178Z,24.20
2019-03-30T07:42:29.143Z,25.75
2019-03-30T07:45:01.610Z,18.32
2019-03-30T07:50:44.995Z,16.77
2019-03-30T07:53:26.141Z,15.13
2019-03-30T07:55:51.498Z,21.80
2019-03-30T07:58:23.684Z,19.45
2019-03-30T08:00:56.665Z,20.75
2019-03-30T08:03:29.770Z,18.32
2019-03-30T08:06:01.684Z,24.30
2019-03-30T08:08:34.276Z,21.77
2019-03-30T08:11:06.796Z,26.65
2019-03-30T08:13:40.360Z,24.35
2019-03-30T08:16:12.522Z,23.40
2019-03-30T08:18:44.603Z,24.27
2019-03-30T08:21:17.497Z,21.37
2019-03-30T08:23:50.191Z,15.83
2019-03-30T08:26:22.369Z,23.77
2019-03-30T08:28:54.555Z,18.48
2019-03-30T08:31:26.900Z,18.87
2019-03-30T08:33:59.436Z,23.47
2019-03-30T08:36:31.639Z,19.37
2019-03-30T08:39:04.942Z,21.25
2019-03-30T08:41:36.913Z,18.27
2019-03-30T08:44:09.092Z,21.33
2019-03-30T08:46:42.049Z,21.12
2019-03-30T08:49:14.296Z,22.00
2019-03-30T08:51:46.679Z,21.87
2019-03-30T08:54:19.238Z,18.52
2019-03-30T08:56:51.953Z,20.82
2019-03-30T08:59:23.930Z,24.50
2019-03-30T09:01:56.097Z,21.10
2019-03-30T09:04:28.042Z,24.37
2019-03-30T09:07:00.090Z,18.07
2019-03-30T09:09:32.419Z,20.05
2019-03-30T09:12:04.889Z,19.57
2019-03-30T09:14:37.692Z,24.20
2019-03-30T09:17:09.827Z,22.22
2019-03-30T09:19:44.353Z,23.85
2019-03-30T09:22:16.607Z,18.07
2019-03-30T09:24:49.014Z,19.85
2019-03-30T09:27:20.922Z,18.10
2019-03-30T09:29:53.496Z,19.40
2019-03-30T09:32:26.229Z,22.90
2019-03-30T09:34:58.831Z,19.00
2019-03-30T09:37:30.912Z,22.58
2019-03-30T09:40:02.902Z,25.05
2019-03-30T09:42:35.240Z,17.17
2019-03-30T09:45:09.854Z,44.58
2019-03-30T09:47:42.052Z,31.45
2019-03-30T09:50:15.699Z,22.80
2019-03-30T09:52:48.047Z,18.42
2019-03-30T09:55:20.139Z,20.57
2019-03-30T09:57:52.502Z,19.20
2019-03-30T10:00:24.494Z,20.05
2019-03-30T10:02:56.901Z,18.98
2019-03-30T10:05:29.322Z,18.42
2019-03-30T10:08:01.595Z,25.32
2019-03-30T10:10:34.202Z,20.05
2019-03-30T10:13:06.701Z,17.80
2019-03-30T10:15:51.212Z,22.95
2019-03-30T10:18:23.449Z,21.93
2019-03-30T10:20:55.727Z,20.50
2019-03-30T10:23:27.692Z,25.32
2019-03-30T10:26:00.202Z,19.35
2019-03-30T10:28:32.332Z,49.80
2019-03-30T10:31:04.170Z,61.20
2019-03-30T10:33:37.172Z,34.13
2019-03-30T10:36:09.480Z,22.93
2019-03-30T10:38:41.730Z,29.77
2019-03-30T10:41:13.751Z,31.77
2019-03-30T10:43:45.909Z,30.12
2019-03-30T10:46:18.132Z,29.63
2019-03-30T10:48:50.330Z,56.75
2019-03-30T10:51:31.570Z,66.55
2019-03-30T10:54:23.203Z,55.55
2019-03-30T10:56:55.232Z,62.67
2019-03-30T10:59:48.267Z,72.58
2019-03-30T11:02:20.911Z,76.35
2019-03-30T11:04:53.206Z,70.90
2019-03-30T11:07:25.312Z,47.88
2019-03-30T11:09:57.298Z,53.63
2019-03-30T11:12:29.650Z,61.88
2019-03-30T11:15:05.288Z,46.30
2019-03-30T11:17:58.947Z,44.53
2019-03-30T11:20:32.358Z,41.58
2019-03-30T11:23:04.661Z,54.03
2019-03-30T11:25:36.602Z,39.03
2019-03-30T11:28:09.168Z,42.95
2019-03-30T11:30:42.337Z,40.83
2019-03-30T11:33:14.968Z,47.95
2019-03-30T11:35:47.261Z,37.42
2019-03-30T11:38:19.628Z,43.17
2019-03-30T11:40:52.357Z,41.77
2019-03-30T11:43:24.734Z,50.03
2019-03-30T11:45:57.007Z,33.10
2019-03-30T11:48:29.356Z,44.75
2019-03-30T11:51:01.394Z,42.73
2019-03-30T11:53:33.497Z,41.35
2019-03-30T11:56:05.727Z,53.17
2019-03-30T11:58:37.835Z,45.40
2019-03-30T12:01:10.004Z,43.63
2019-03-30T12:03:42.074Z,48.98
2019-03-30T12:06:14.253Z,53.40
2019-03-30T12:08:46.572Z,51.13
2019-03-30T12:11:18.827Z,48.40
2019-03-30T12:13:58.136Z,50.95
2019-03-30T12:16:30.549Z,41.20
2019-03-30T12:19:05.328Z,66.28
2019-03-30T12:21:37.806Z,52.53
2019-03-30T12:24:09.873Z,46.88
2019-03-30T12:26:42.249Z,53.05
2019-03-30T12:29:14.391Z,52.15
2019-03-30T12:31:46.907Z,55.33
2019-03-30T12:34:38.459Z,47.78
2019-03-30T12:37:31.289Z,53.98
2019-03-30T12:40:12.815Z,49.95
2019-03-30T12:42:45.420Z,42.95
2019-03-30T12:45:38.333Z,35.75
2019-03-30T12:48:10.819Z,44.42
2019-03-30T12:50:42.878Z,49.18
2019-03-30T12:53:14.891Z,49.15
2019-03-30T12:55:49.511Z,55.33
2019-03-30T12:58:20.806Z,51.77
2019-03-30T13:00:53.444Z,60.17
2019-03-30T13:03:25.171Z,51.42
2019-03-30T13:05:57.529Z,50.85
2019-03-30T13:08:29.854Z,51.98
2019-03-30T13:11:02.038Z,64.27
2019-03-30T13:13:34.497Z,67.60
2019-03-30T13:16:07.131Z,59.63
2019-03-30T13:18:39.622Z,74.85
2019-03-30T13:21:12.305Z,69.05
2019-03-30T13:24:23.698Z,54.53
2019-03-30T13:26:56.407Z,53.10
2019-03-30T13:29:31.280Z,50.10
2019-03-30T13:32:03.566Z,56.18
2019-03-30T13:34:36.114Z,48.20
2019-03-30T13:37:28.657Z,44.15
2019-03-30T13:40:01.283Z,48.95
2019-03-30T13:42:33.779Z,49.88
2019-03-30T13:45:07.439Z,52.05
2019-03-30T13:47:39.798Z,54.27
2019-03-30T13:50:12.443Z,43.78
2019-03-30T13:52:45.728Z,49.90
2019-03-30T13:55:18.166Z,49.58
2019-03-30T13:57:50.396Z,49.27
2019-03-30T14:00:22.738Z,39.55
2019-03-30T14:02:54.896Z,44.53
2019-03-30T14:05:27.377Z,48.92
2019-03-30T14:07:59.658Z,44.77
2019-03-30T14:10:31.793Z,43.65
2019-03-30T14:13:04.141Z,62.85
2019-03-30T14:15:36.778Z,57.95
2019-03-30T14:18:09.163Z,71.12
2019-03-30T14:20:43.134Z,68.25
2019-03-30T14:23:28.747Z,68.87
2019-03-30T14:26:01.452Z,76.87
2019-03-30T14:28:33.357Z,64.10
2019-03-30T14:31:05.374Z,56.75
2019-03-30T14:33:37.431Z,79.70
2019-03-30T14:36:09.422Z,71.33
2019-03-30T14:38:41.758Z,63.80
2019-03-30T14:41:14.371Z,61.20
2019-03-30T14:43:46.593Z,64.00
2019-03-30T14:46:18.726Z,61.30
2019-03-30T14:48:51.372Z,79.90
2019-03-30T14:51:23.207Z,60.73
2019-03-30T14:53:57.760Z,56.65
2019-03-30T14:56:44.558Z,57.40
2019-03-30T14:59:10.324Z,56.28
2019-03-30T15:01:38.005Z,55.88
2019-03-30T15:04:10.103Z,48.78
2019-03-30T15:06:42.293Z,53.78
2019-03-30T15:09:14.558Z,50.38
2019-03-30T15:11:47.020Z,49.18
2019-03-30T15:14:18.819Z,56.77
2019-03-30T15:16:51.312Z,50.78
2019-03-30T15:19:23.354Z,48.50
2019-03-30T15:21:55.582Z,54.27
2019-03-30T15:24:29.890Z,52.60
2019-03-30T15:27:02.289Z,51.45
2019-03-30T15:29:34.388Z,58.42
2019-03-30T15:32:06.728Z,53.33
2019-03-30T15:34:38.763Z,50.78
2019-03-30T15:37:11.060Z,53.05
2019-03-30T15:39:43.121Z,45.25
2019-03-30T15:42:15.141Z,61.20
2019-03-30T15:44:48.889Z,54.45
2019-03-30T15:47:20.826Z,73.30
2019-03-30T15:49:52.909Z,70.90
2019-03-30T15:52:25.092Z,56.63
2019-03-30T15:54:58.077Z,60.92
2019-03-30T15:57:30.344Z,61.02
2019-03-30T16:00:02.368Z,55.03
2019-03-30T16:02:34.290Z,60.25
2019-03-30T16:05:07.490Z,62.90
2019-03-30T16:07:39.420Z,63.92
2019-03-30T16:10:11.979Z,59.88
2019-03-30T16:12:44.273Z,62.78
2019-03-30T16:15:17.484Z,66.80
2019-03-30T16:17:49.919Z,56.15
2019-03-30T16:20:21.998Z,59.95
2019-03-30T16:22:53.988Z,54.88
2019-03-30T16:25:26.269Z,55.88
2019-03-30T16:27:59.013Z,55.63
2019-03-30T16:30:32.390Z,61.23
2019-03-30T16:33:05.290Z,50.60
2019-03-30T16:35:37.491Z,52.13
2019-03-30T16:38:09.680Z,55.17
2019-03-30T16:40:41.707Z,57.20
2019-03-30T16:43:13.851Z,56.00
2019-03-30T16:45:47.415Z,49.58
2019-03-30T16:48:19.283Z,59.42
2019-03-30T16:50:51.541Z,55.03
2019-03-30T16:53:23.559Z,59.80
2019-03-30T16:55:55.898Z,60.08
2019-03-30T16:58:28.427Z,54.08
2019-03-30T17:01:00.457Z,48.15
2019-03-30T17:03:32.504Z,53.73
2019-03-30T17:06:06.711Z,54.77
2019-03-30T17:08:39.389Z,48.80
2019-03-30T17:11:11.408Z,48.33
2019-03-30T17:13:43.633Z,43.33
2019-03-30T17:16:15.542Z,50.65
2019-03-30T17:18:48.212Z,50.20
2019-03-30T17:21:20.352Z,48.65
2019-03-30T17:23:52.625Z,46.58
2019-03-30T17:26:24.749Z,48.23
2019-03-30T17:28:59.085Z,47.93
2019-03-30T17:31:31.611Z,44.60
2019-03-30T17:34:04.341Z,44.67
2019-03-30T17:36:36.492Z,48.45
2019-03-30T17:39:10.083Z,49.05
2019-03-30T17:41:42.140Z,45.25
2019-03-30T17:44:14.372Z,52.55
2019-03-30T17:46:46.682Z,53.50
2019-03-30T17:49:18.849Z,51.98
2019-03-30T17:51:53.808Z,48.80
2019-03-30T17:54:24.723Z,47.70
2019-03-30T17:56:56.768Z,48.42
2019-03-30T17:59:28.732Z,54.20
2019-03-30T18:02:01.931Z,48.68
2019-03-30T18:04:33.940Z,59.75
2019-03-30T18:07:05.970Z,48.85
2019-03-30T18:09:37.959Z,51.90
2019-03-30T18:12:10.107Z,48.63
2019-03-30T18:14:42.081Z,52.53
2019-03-30T18:17:14.129Z,51.85
2019-03-30T18:19:46.389Z,52.70
2019-03-30T18:22:18.307Z,50.10
2019-03-30T18:24:51.039Z,43.48
2019-03-30T18:27:23.690Z,52.75
2019-03-30T18:29:55.666Z,56.65
2019-03-30T18:32:28.134Z,56.37
2019-03-30T18:35:01.443Z,51.73
2019-03-30T18:37:35.840Z,48.00
2019-03-30T18:40:10.274Z,55.73
2019-03-30T18:42:42.652Z,48.17
2019-03-30T18:45:18.104Z,47.40
2019-03-30T18:47:50.809Z,45.98
2019-03-30T18:50:22.842Z,41.92
2019-03-30T18:52:54.997Z,46.00
2019-03-30T18:55:27.344Z,55.73
2019-03-30T18:57:59.563Z,60.43
2019-03-30T19:00:33.746Z,54.93
2019-03-30T19:03:06.992Z,61.85
2019-03-30T19:05:40.542Z,62.38
2019-03-30T19:08:12.933Z,64.72
2019-03-30T19:10:45.048Z,65.95
2019-03-30T19:13:17.065Z,67.00
2019-03-30T19:15:49.037Z,69.80
2019-03-30T19:18:21.106Z,70.60
2019-03-30T19:20:54.059Z,75.65
2019-03-30T19:23:26.047Z,77.90
2019-03-30T19:25:58.548Z,82.62
2019-03-30T19:28:31.418Z,72.97
2019-03-30T19:31:04.317Z,73.52
2019-03-30T19:33:36.645Z,73.37
2019-03-30T19:36:10.198Z,81.97
2019-03-30T19:38:42.935Z,76.67
2019-03-30T19:41:14.808Z,70.22
2019-03-30T19:43:46.848Z,82.08
2019-03-30T19:46:19.124Z,70.20
2019-03-30T19:48:51.473Z,73.15
2019-03-30T19:51:23.749Z,70.28
2019-03-30T19:53:55.731Z,63.08
2019-03-30T19:56:28.314Z,71.25
2019-03-30T19:59:10.560Z,66.90
2019-03-30T20:01:35.821Z,77.87
2019-03-30T20:04:08.098Z,70.78
2019-03-30T20:06:40.436Z,73.02
2019-03-30T20:09:12.458Z,70.75
2019-03-30T20:11:44.604Z,68.02
2019-03-30T20:14:17.015Z,69.05
2019-03-30T20:16:49.107Z,68.42
2019-03-30T20:19:20.966Z,78.25
2019-03-30T20:21:57.089Z,70.42
2019-03-30T20:24:27.149Z,65.90
2019-03-30T20:26:59.492Z,67.90
2019-03-30T20:29:31.754Z,63.83
2019-03-30T20:32:03.862Z,68.62
2019-03-30T20:34:36.090Z,75.40
2019-03-30T20:37:08.559Z,65.95
2019-03-30T20:39:40.458Z,63.55
2019-03-30T20:42:13.140Z,61.35
2019-03-30T20:44:45.320Z,67.75
2019-03-30T20:47:17.195Z,68.52
2019-03-30T20:49:49.659Z,67.00
2019-03-30T20:52:21.602Z,73.47
2019-03-30T20:54:53.865Z,72.67
2019-03-30T20:57:26.218Z,70.08
2019-03-30T20:59:58.500Z,75.03
2019-03-30T21:02:30.585Z,75.03
2019-03-30T21:05:03.184Z,70.85
2019-03-30T21:07:35.363Z,68.00
2019-03-30T21:10:10.034Z,77.30
2019-03-30T21:12:41.950Z,72.15
2019-03-30T21:15:15.080Z,68.65
2019-03-30T21:17:47.740Z,115.17
2019-03-30T21:20:20.036Z,86.67
2019-03-30T21:22:52.221Z,75.70
2019-03-30T21:25:24.847Z,73.25
2019-03-30T21:27:56.950Z,72.62
2019-03-30T21:30:29.865Z,77.15
2019-03-30T21:33:02.887Z,70.47
2019-03-30T21:35:35.112Z,71.30
2019-03-30T21:38:07.715Z,74.17
2019-03-30T21:40:40.233Z,72.55
2019-03-30T21:43:12.826Z,67.37
2019-03-30T21:45:45.074Z,78.17
2019-03-30T21:48:17.753Z,69.42
2019-03-30T21:50:49.929Z,66.92
2019-03-30T21:53:21.937Z,74.35
2019-03-30T21:55:54.780Z,74.65
2019-03-30T21:58:26.610Z,66.90
2019-03-30T22:01:18.456Z,69.30
2019-03-30T22:03:50.824Z,61.23
2019-03-30T22:06:22.877Z,88.15
2019-03-30T22:08:56.215Z,71.67
2019-03-30T22:11:28.276Z,63.98
2019-03-30T22:14:00.444Z,67.32
2019-03-30T22:16:32.661Z,70.03
2019-03-30T22:19:05.585Z,66.20
2019-03-30T22:21:37.631Z,63.85
2019-03-30T22:24:10.156Z,66.22
2019-03-30T22:26:42.234Z,63.90
2019-03-30T22:29:14.680Z,64.32
2019-03-30T22:31:46.423Z,66.10
2019-03-30T22:34:18.423Z,58.05
2019-03-30T22:36:50.449Z,54.33
2019-03-30T22:39:23.183Z,59.93
2019-03-30T22:41:55.409Z,61.60
2019-03-30T22:44:27.368Z,55.28
2019-03-30T22:46:59.836Z,55.52
2019-03-30T22:49:32.217Z,56.33
2019-03-30T22:52:04.309Z,54.15
2019-03-30T22:54:36.138Z,59.13
2019-03-30T22:57:08.537Z,53.30
2019-03-30T22:59:40.402Z,54.70
2019-03-30T23:02:13.951Z,56.70
2019-03-30T23:04:46.231Z,53.45
2019-03-30T23:07:18.112Z,52.43
2019-03-30T23:09:50.756Z,56.70
2019-03-30T23:12:22.710Z,59.00
2019-03-30T23:14:54.660Z,57.60
2019-03-30T23:17:28.160Z,60.30
2019-03-30T23:19:59.987Z,59.23
2019-03-30T23:22:31.945Z,65.37
2019-03-30T23:25:04.007Z,77.55
2019-03-30T23:27:36.097Z,56.98
2019-03-30T23:30:10.059Z,58.68
2019-03-30T23:32:42.061Z,62.30
2019-03-30T23:35:14.118Z,47.88
2019-03-30T23:37:46.735Z,49.90
2019-03-30T23:40:20.470Z,48.23
2019-03-30T23:42:52.904Z,49.13
2019-03-30T23:45:24.949Z,43.87
2019-03-30T23:47:56.842Z,45.03
2019-03-30T23:50:28.852Z,40.52
2019-03-30T23:53:01.029Z,65.67
2019-03-30T23:55:33.321Z,54.48
2019-03-30T23:58:05.965Z,46.83
